createdAt,value
2022-09-06T00:00:26.468Z,101529.78
2022-09-06T00:02:53.602Z,101530.91
2022-09-06T00:05:20.962Z,101507.88
2022-09-06T00:07:48.059Z,101541.28
2022-09-06T00:10:15.456Z,101554.97
2022-09-06T00:12:42.458Z,101552.59
2022-09-06T00:15:10.108Z,101557.91
2022-09-06T00:17:37.228Z,101564.88
2022-09-06T00:20:09.143Z,101554.28
2022-09-06T00:22:37.741Z,101539.47
2022-09-06T00:25:06.548Z,101519.97
2022-09-06T00:27:34.636Z,101515.53
2022-09-06T00:30:01.811Z,101524.13
2022-09-06T00:32:28.785Z,101533.06
2022-09-06T00:34:55.817Z,101526.75
2022-09-06T00:37:22.830Z,101515.97
2022-09-06T00:39:49.848Z,101504.44
2022-09-06T00:42:16.920Z,101506.31
2022-09-06T00:44:43.977Z,101500.56
2022-09-06T00:47:11.180Z,101500.72
2022-09-06T00:49:45.034Z,101486.25
2022-09-06T00:52:15.440Z,101480.13
2022-09-06T00:54:43.304Z,101472.94
2022-09-06T00:57:11.038Z,101467.47
2022-09-06T00:59:39.905Z,101468.22
2022-09-06T01:02:09.368Z,101463.78
2022-09-06T01:04:39.275Z,101464.53
2022-09-06T01:07:31.704Z,101463.69
2022-09-06T01:10:14.559Z,101463.06
2022-09-06T01:13:12.828Z,101453.50
2022-09-06T01:16:15.137Z,101455.94
2022-09-06T01:19:03.214Z,101452.50
2022-09-06T01:22:02.194Z,101466.16
2022-09-06T01:24:58.576Z,101463.03
2022-09-06T01:28:25.070Z,101448.75
2022-09-06T01:31:11.763Z,101432.88
2022-09-06T01:33:58.472Z,101418.41
2022-09-06T01:36:32.099Z,101411.84
2022-09-06T01:38:59.114Z,101395.97
2022-09-06T01:41:26.577Z,101384.75
2022-09-06T01:43:55.550Z,101355.44
2022-09-06T01:46:58.762Z,101326.31
2022-09-06T01:50:12.435Z,101308.66
2022-09-06T01:52:58.875Z,101331.91
2022-09-06T01:56:03.156Z,101348.81
2022-09-06T01:59:07.291Z,101339.25
2022-09-06T02:02:03.773Z,101354.88
2022-09-06T02:04:51.935Z,101358.81
2022-09-06T02:07:32.570Z,101352.63
2022-09-06T02:10:39.338Z,101348.72
2022-09-06T02:13:08.611Z,101343.41
2022-09-06T02:15:44.539Z,101345.34
2022-09-06T02:18:24.181Z,101344.66
2022-09-06T02:20:58.766Z,101335.56
2022-09-06T02:23:31.272Z,101325.84
2022-09-06T02:26:21.107Z,101326.84
2022-09-06T02:28:48.782Z,101318.81
2022-09-06T02:31:38.032Z,101324.44
2022-09-06T02:34:05.826Z,101308.31
2022-09-06T02:36:35.367Z,101313.91
2022-09-06T02:39:02.383Z,101316.84
2022-09-06T02:41:31.086Z,101323.06
2022-09-06T02:43:58.260Z,101324.81
2022-09-06T02:46:25.403Z,101326.59
2022-09-06T02:48:52.597Z,101331.91
2022-09-06T02:51:20.634Z,101331.91
2022-09-06T02:53:48.002Z,101331.84
2022-09-06T02:56:15.077Z,101331.19
2022-09-06T02:58:42.113Z,101338.28
2022-09-06T03:01:09.340Z,101345.34
2022-09-06T03:03:36.605Z,101347.00
2022-09-06T03:06:03.683Z,101347.16
2022-09-06T03:08:33.629Z,101347.13
2022-09-06T03:11:01.671Z,101345.47
2022-09-06T03:13:29.219Z,101339.09
2022-09-06T03:15:59.365Z,101338.28
2022-09-06T03:18:29.758Z,101345.16
2022-09-06T03:20:57.998Z,101344.25
2022-09-06T03:23:28.127Z,101339.75
2022-09-06T03:25:56.123Z,101342.41
2022-09-06T03:28:23.972Z,101340.56
2022-09-06T03:30:52.116Z,101345.13
2022-09-06T03:33:20.776Z,101343.50
2022-09-06T03:35:54.839Z,101341.91
2022-09-06T03:38:23.686Z,101348.22
2022-09-06T03:40:52.848Z,101356.28
2022-09-06T03:43:23.030Z,101353.03
2022-09-06T03:45:57.193Z,101356.47
2022-09-06T03:48:29.346Z,101345.88
2022-09-06T03:50:58.752Z,101341.59
2022-09-06T03:53:27.527Z,101338.81
2022-09-06T03:55:57.554Z,101339.84
2022-09-06T03:58:29.970Z,101344.31
2022-09-06T04:01:06.951Z,101342.44
2022-09-06T04:03:35.322Z,101346.97
2022-09-06T04:06:03.267Z,101347.91
2022-09-06T04:08:30.668Z,101353.22
2022-09-06T04:10:59.125Z,101355.88
2022-09-06T04:13:28.576Z,101356.03
2022-09-06T04:15:55.782Z,101362.13
2022-09-06T04:18:22.907Z,101372.81
2022-09-06T04:20:52.995Z,101364.78
2022-09-06T04:23:21.325Z,101352.34
2022-09-06T04:25:54.436Z,101357.59
2022-09-06T04:28:22.397Z,101352.53
2022-09-06T04:31:04.571Z,101356.91
2022-09-06T04:33:34.056Z,101355.19
2022-09-06T04:36:03.465Z,101354.28
2022-09-06T04:38:34.990Z,101368.47
2022-09-06T04:41:01.990Z,101376.47
2022-09-06T04:43:29.019Z,101369.44
2022-09-06T04:45:56.131Z,101364.16
2022-09-06T04:48:23.220Z,101361.50
2022-09-06T04:50:50.223Z,101366.84
2022-09-06T04:53:17.215Z,101368.63
2022-09-06T04:55:44.267Z,101373.00
2022-09-06T04:58:11.249Z,101367.75
2022-09-06T05:00:39.003Z,101366.91
2022-09-06T05:03:06.159Z,101366.03
2022-09-06T05:05:33.391Z,101368.69
2022-09-06T05:08:00.416Z,101367.78
2022-09-06T05:10:27.589Z,101370.69
2022-09-06T05:12:55.304Z,101373.44
2022-09-06T05:15:23.397Z,101381.34
2022-09-06T05:17:50.578Z,101384.03
2022-09-06T05:20:18.523Z,101379.75
2022-09-06T05:22:54.373Z,101378.84
2022-09-06T05:25:21.825Z,101378.75
2022-09-06T05:27:49.163Z,101371.72
2022-09-06T05:30:18.092Z,101377.88
2022-09-06T05:32:45.329Z,101375.00
2022-09-06T05:35:12.384Z,101368.03
2022-09-06T05:37:39.588Z,101375.91
2022-09-06T05:40:07.519Z,101376.78
2022-09-06T05:42:34.763Z,101378.50
2022-09-06T05:45:02.397Z,101378.50
2022-09-06T05:47:31.236Z,101378.41
2022-09-06T05:49:58.362Z,101374.81
2022-09-06T05:52:25.403Z,101369.53
2022-09-06T05:54:52.511Z,101367.56
2022-09-06T05:57:19.706Z,101377.19
2022-09-06T05:59:46.771Z,101373.59
2022-09-06T06:02:13.932Z,101376.09
2022-09-06T06:04:40.933Z,101378.53
2022-09-06T06:07:07.943Z,101375.00
2022-09-06T06:09:34.924Z,101374.97
2022-09-06T06:12:02.108Z,101368.44
2022-09-06T06:14:29.117Z,101378.38
2022-09-06T06:16:56.312Z,101371.22
2022-09-06T06:19:23.424Z,101372.91
2022-09-06T06:21:50.457Z,101375.41
2022-09-06T06:24:17.551Z,101358.97
2022-09-06T06:26:44.926Z,101363.41
2022-09-06T06:29:11.926Z,101363.84
2022-09-06T06:31:39.472Z,101366.19
2022-09-06T06:34:07.350Z,101354.84
2022-09-06T06:36:36.732Z,101350.13
2022-09-06T06:39:07.396Z,101351.97
2022-09-06T06:41:34.709Z,101361.53
2022-09-06T06:44:04.576Z,101362.44
2022-09-06T06:46:35.603Z,101364.00
2022-09-06T06:49:03.409Z,101360.31
2022-09-06T06:51:37.207Z,101355.56
2022-09-06T06:54:05.756Z,101356.31
2022-09-06T06:56:34.928Z,101365.03
2022-09-06T06:59:05.865Z,101351.75
2022-09-06T07:01:36.018Z,101350.59
2022-09-06T07:04:04.387Z,101351.03
2022-09-06T07:09:20.251Z,101343.78
2022-09-06T07:11:51.337Z,101339.59
2022-09-06T07:14:18.878Z,101343.94
2022-09-06T07:16:46.306Z,101337.31
2022-09-06T07:22:04.423Z,101330.69
2022-09-06T07:24:32.843Z,101326.34
2022-09-06T07:29:47.007Z,101327.44
2022-09-06T07:32:14.023Z,101332.25
2022-09-06T07:34:41.727Z,101328.97
2022-09-06T07:37:08.822Z,101326.19
2022-09-06T07:39:37.136Z,101325.31
2022-09-06T07:42:04.644Z,101324.66
2022-09-06T07:44:31.690Z,101324.31
2022-09-06T07:55:20.115Z,101309.75
2022-09-06T07:57:47.142Z,101315.44
2022-09-06T08:00:14.400Z,101310.41
2022-09-06T08:02:41.499Z,101313.03
2022-09-06T08:10:42.872Z,101307.22
2022-09-06T08:13:09.946Z,101310.56
2022-09-06T08:15:41.125Z,101314.97
2022-09-06T08:18:08.705Z,101296.50
2022-09-06T08:20:35.942Z,101302.06
2022-09-06T08:23:03.042Z,101302.09
2022-09-06T08:25:30.036Z,101298.25
2022-09-06T08:27:57.122Z,101301.56
2022-09-06T08:30:24.131Z,101307.53
2022-09-06T08:32:52.347Z,101316.56
2022-09-06T08:35:19.371Z,101330.31
2022-09-06T08:37:46.552Z,101332.44
2022-09-06T08:40:20.132Z,101319.47
2022-09-06T08:42:48.340Z,101309.44
2022-09-06T08:45:19.531Z,101310.09
2022-09-06T08:47:46.671Z,101301.59
2022-09-06T08:50:13.719Z,101293.97
2022-09-06T08:53:17.291Z,101310.88
2022-09-06T08:56:03.561Z,101302.53
2022-09-06T08:58:36.377Z,101301.53
2022-09-06T09:01:11.577Z,101301.50
2022-09-06T09:03:45.848Z,101309.38
2022-09-06T09:06:13.138Z,101304.44
2022-09-06T09:09:01.737Z,101301.78
2022-09-06T09:11:30.356Z,101307.84
2022-09-06T09:14:21.547Z,101302.03
2022-09-06T09:17:03.419Z,101292.06
2022-09-06T09:19:33.569Z,101297.44
2022-09-06T09:22:01.692Z,101281.25
2022-09-06T09:24:29.093Z,101296.31
2022-09-06T09:27:18.541Z,101301.16
2022-09-06T09:32:45.914Z,101293.63
2022-09-06T09:35:33.960Z,101302.47
2022-09-06T09:38:24.224Z,101303.94
2022-09-06T09:40:53.032Z,101305.34
2022-09-06T09:43:22.939Z,101298.84
2022-09-06T09:46:15.835Z,101295.19
2022-09-06T09:49:04.578Z,101295.97
2022-09-06T09:51:44.143Z,101298.34
2022-09-06T09:54:29.931Z,101298.56
2022-09-06T09:56:57.989Z,101281.56
2022-09-06T09:59:36.877Z,101290.81
2022-09-06T10:02:24.942Z,101290.19
2022-09-06T10:05:20.081Z,101314.47
2022-09-06T10:10:41.765Z,101316.25
2022-09-06T10:13:31.626Z,101310.19
2022-09-06T10:16:00.655Z,101302.50
2022-09-06T10:18:33.444Z,101303.28
2022-09-06T10:21:22.769Z,101307.59
2022-09-06T10:24:30.682Z,101315.47
2022-09-06T10:29:56.782Z,101313.84
2022-09-06T10:35:48.403Z,101310.34
2022-09-06T10:38:41.040Z,101302.84
2022-09-06T10:52:03.823Z,101300.59
2022-09-06T10:54:36.741Z,101303.34
2022-09-06T11:00:17.174Z,101300.97
2022-09-06T11:06:12.754Z,101310.94
2022-09-06T11:09:19.389Z,101314.69
2022-09-06T11:12:12.684Z,101321.53
2022-09-06T11:14:41.326Z,101325.19
2022-09-06T11:17:37.590Z,101326.59
2022-09-06T11:20:18.108Z,101328.59
2022-09-06T11:23:14.447Z,101327.69
2022-09-06T11:26:08.491Z,101331.72
2022-09-06T11:28:52.706Z,101334.28
2022-09-06T11:34:37.350Z,101338.19
2022-09-06T11:45:21.410Z,101328.56
2022-09-06T11:47:53.844Z,101339.25
2022-09-06T11:50:20.682Z,101334.72
2022-09-06T11:53:14.382Z,101334.81
2022-09-06T11:56:00.281Z,101337.53
2022-09-06T11:58:41.720Z,101333.75
2022-09-06T12:01:16.573Z,101324.66
2022-09-06T12:07:06.918Z,101323.50
2022-09-06T12:09:45.524Z,101322.44
2022-09-06T12:12:32.445Z,101314.47
2022-09-06T12:15:26.966Z,101332.19
2022-09-06T12:17:54.220Z,101319.81
2022-09-06T12:20:49.391Z,101317.44
2022-09-06T12:23:36.532Z,101316.06
2022-09-06T12:26:11.506Z,101307.63
2022-09-06T12:28:43.783Z,101306.59
2022-09-06T12:31:38.818Z,101306.41
2022-09-06T12:34:12.115Z,101302.34
2022-09-06T12:37:10.670Z,101304.06
2022-09-06T12:39:38.068Z,101304.19
2022-09-06T12:42:12.994Z,101293.34
2022-09-06T12:44:49.152Z,101289.69
2022-09-06T12:47:29.331Z,101285.72
2022-09-06T12:50:26.031Z,101291.94
2022-09-06T12:52:56.678Z,101275.25
2022-09-06T12:55:29.605Z,101271.84
2022-09-06T12:58:00.614Z,101279.22
2022-09-06T13:00:47.448Z,101269.81
2022-09-06T13:03:31.590Z,101264.00
2022-09-06T13:06:02.307Z,101266.44
2022-09-06T13:11:19.700Z,101258.16
2022-09-06T13:13:53.736Z,101262.66
2022-09-06T13:16:25.454Z,101266.53
2022-09-06T13:18:54.190Z,101258.94
2022-09-06T13:21:33.399Z,101262.22
2022-09-06T13:24:04.060Z,101260.44
2022-09-06T13:26:40.054Z,101249.56
2022-09-06T13:29:30.886Z,101252.00
2022-09-06T13:32:01.957Z,101246.47
2022-09-06T13:34:33.926Z,101238.00
2022-09-06T13:54:11.898Z,101215.25
2022-09-06T13:56:39.345Z,101205.75
2022-09-06T13:59:07.954Z,101195.34
2022-09-06T14:04:22.474Z,101208.00
2022-09-06T14:06:49.985Z,101206.06
2022-09-06T14:09:17.143Z,101202.22
2022-09-06T14:11:48.245Z,101207.47
2022-09-06T14:17:05.193Z,101211.28
2022-09-06T14:19:32.709Z,101210.31
2022-09-06T14:40:45.456Z,101197.56
2022-09-06T14:43:12.575Z,101192.75
2022-09-06T14:45:39.872Z,101202.28
2022-09-06T14:48:07.186Z,101193.28
2022-09-06T14:50:34.585Z,101193.19
2022-09-06T14:53:02.508Z,101184.50
2022-09-06T14:55:30.217Z,101183.63
2022-09-06T14:57:59.079Z,101182.47
2022-09-06T15:00:26.193Z,101174.50
2022-09-06T15:02:54.550Z,101170.78
2022-09-06T15:05:36.593Z,101164.19
2022-09-06T15:10:54.844Z,101169.09
2022-09-06T15:19:37.319Z,101162.13
2022-09-06T15:22:06.265Z,101163.84
2022-09-06T15:24:34.529Z,101158.81
2022-09-06T15:29:52.941Z,101160.94
2022-09-06T15:32:19.969Z,101143.53
2022-09-06T15:34:49.283Z,101140.19
2022-09-06T15:37:16.318Z,101139.22
2022-09-06T15:39:43.332Z,101136.50
2022-09-06T15:42:10.409Z,101136.78
2022-09-06T15:47:16.134Z,101143.84
2022-09-06T15:49:43.243Z,101137.31
2022-09-06T15:52:10.717Z,101131.38
2022-09-06T15:54:56.395Z,101135.13
2022-09-06T15:57:24.359Z,101139.56
2022-09-06T15:59:51.448Z,101126.91
2022-09-06T16:02:18.485Z,101136.69
2022-09-06T16:04:46.298Z,101133.28
2022-09-06T16:07:13.582Z,101126.22
2022-09-06T16:09:40.637Z,101117.41
2022-09-06T16:12:08.598Z,101111.75
2022-09-06T16:14:35.747Z,101115.13
2022-09-06T16:17:02.789Z,101118.78
2022-09-06T16:19:29.926Z,101107.09
2022-09-06T16:21:58.717Z,101103.91
2022-09-06T16:24:26.561Z,101109.22
2022-09-06T16:26:53.601Z,101092.44
2022-09-06T16:29:21.517Z,101093.63
2022-09-06T16:31:48.706Z,101093.22
2022-09-06T16:34:16.371Z,101097.56
2022-09-06T16:36:43.803Z,101096.56
2022-09-06T16:39:14.359Z,101084.31
2022-09-06T16:41:45.844Z,101082.38
2022-09-06T16:44:17.580Z,101086.06
2022-09-06T16:46:47.035Z,101081.91
2022-09-06T16:49:16.880Z,101079.22
2022-09-06T16:51:44.815Z,101087.69
2022-09-06T16:54:12.192Z,101077.75
2022-09-06T16:56:40.086Z,101088.44
2022-09-06T16:59:09.636Z,101084.13
2022-09-06T17:01:41.388Z,101086.06
2022-09-06T17:04:09.618Z,101080.56
2022-09-06T17:06:44.060Z,101079.31
2022-09-06T17:09:17.725Z,101072.59
2022-09-06T17:11:44.984Z,101082.53
2022-09-06T17:14:12.007Z,101081.63
2022-09-06T17:16:57.830Z,101083.16
2022-09-06T17:19:25.285Z,101079.88
2022-09-06T17:21:52.450Z,101079.66
2022-09-06T17:24:19.826Z,101072.63
2022-09-06T17:26:47.227Z,101074.66
2022-09-06T17:29:14.296Z,101069.06
2022-09-06T17:31:41.328Z,101073.78
2022-09-06T17:34:08.347Z,101076.84
2022-09-06T17:36:36.476Z,101072.19
2022-09-06T17:39:21.025Z,101080.97
2022-09-06T17:41:54.355Z,101074.72
2022-09-06T17:44:27.731Z,101082.81
2022-09-06T17:49:43.208Z,101064.69
2022-09-06T17:52:11.095Z,101052.78
2022-09-06T17:54:38.216Z,101054.31
2022-09-06T17:57:05.228Z,101056.09
2022-09-06T17:59:35.534Z,101041.31
2022-09-06T18:02:04.871Z,101038.47
2022-09-06T18:04:32.163Z,101029.00
2022-09-06T18:06:59.282Z,101042.53
2022-09-06T18:09:26.331Z,101044.59
2022-09-06T18:11:53.390Z,101044.00
2022-09-06T18:14:20.943Z,101047.09
2022-09-06T18:16:51.145Z,101045.91
2022-09-06T18:19:18.832Z,101053.56
2022-09-06T18:21:47.212Z,101046.94
2022-09-06T18:24:14.779Z,101046.06
2022-09-06T18:26:43.034Z,101035.00
2022-09-06T18:29:13.152Z,101039.44
2022-09-06T18:31:41.195Z,101047.78
2022-09-06T18:34:08.898Z,101039.88
2022-09-06T18:36:38.016Z,101035.59
2022-09-06T18:39:11.356Z,101037.34
2022-09-06T18:41:57.236Z,101030.53
2022-09-06T18:44:24.296Z,101024.63
2022-09-06T18:46:55.791Z,101018.06
2022-09-06T18:49:23.110Z,101022.66
2022-09-06T18:51:50.670Z,101016.63
2022-09-06T18:54:18.088Z,101028.41
2022-09-06T18:56:45.122Z,101022.91
2022-09-06T18:59:13.917Z,101016.13
2022-09-06T19:01:43.070Z,101012.91
2022-09-06T19:04:11.448Z,101017.97
2022-09-06T19:06:41.147Z,101009.19
2022-09-06T19:09:12.563Z,101015.44
2022-09-06T19:11:41.567Z,101013.78
2022-09-06T19:14:08.679Z,101006.59
2022-09-06T19:16:36.262Z,101000.56
2022-09-06T19:19:09.864Z,100994.22
2022-09-06T19:21:41.630Z,100990.97
2022-09-06T19:24:11.755Z,100980.13
2022-09-06T19:26:42.361Z,100979.47
2022-09-06T19:29:15.787Z,100992.19
2022-09-06T19:31:43.866Z,100990.94
2022-09-06T19:34:12.287Z,100978.78
2022-09-06T19:36:39.472Z,100975.16
2022-09-06T19:39:10.260Z,100976.97
2022-09-06T19:41:42.998Z,100976.25
2022-09-06T19:44:11.960Z,100967.94
2022-09-06T19:46:45.885Z,100972.56
2022-09-06T19:49:19.354Z,100971.94
2022-09-06T19:51:48.920Z,100973.66
2022-09-06T19:54:17.098Z,100968.59
2022-09-06T19:56:45.195Z,100967.97
2022-09-06T19:59:14.466Z,100959.41
2022-09-06T20:01:43.322Z,100962.47
2022-09-06T20:04:13.264Z,100961.00
2022-09-06T20:06:40.694Z,100950.09
2022-09-06T20:09:10.071Z,100958.13
2022-09-06T20:11:39.315Z,100956.50
2022-09-06T20:14:07.687Z,100947.69
2022-09-06T20:16:39.374Z,100945.34
2022-09-06T20:19:08.536Z,100941.97
2022-09-06T20:24:02.793Z,100936.16
2022-09-06T20:26:30.578Z,100923.91
2022-09-06T20:29:00.065Z,100918.81
2022-09-06T20:33:58.032Z,100917.75
2022-09-06T20:36:25.359Z,100903.50
2022-09-06T20:38:52.473Z,100898.13
2022-09-06T20:41:25.744Z,100901.22
2022-09-06T20:43:56.028Z,100889.56
2022-09-06T20:46:29.117Z,100891.56
2022-09-06T20:48:59.736Z,100879.22
2022-09-06T20:51:27.021Z,100869.56
2022-09-06T20:54:00.835Z,100864.19
2022-09-06T20:56:34.404Z,100851.31
2022-09-06T20:59:08.612Z,100848.03
2022-09-06T21:01:40.610Z,100853.97
2022-09-06T21:04:09.899Z,100855.72
2022-09-06T21:06:39.509Z,100849.66
2022-09-06T21:09:13.202Z,100837.41
2022-09-06T21:11:41.087Z,100845.81
2022-09-06T21:14:09.450Z,100849.50
2022-09-06T21:16:38.769Z,100853.34
2022-09-06T21:19:09.295Z,100854.94
2022-09-06T21:21:37.283Z,100851.38
2022-09-06T21:24:07.220Z,100864.69
2022-09-06T21:26:34.573Z,100868.47
2022-09-06T21:29:02.171Z,100873.81
2022-09-06T21:31:36.299Z,100870.19
2022-09-06T21:34:15.700Z,100869.25
2022-09-06T21:36:44.418Z,100862.78
2022-09-06T21:39:12.751Z,100855.94
2022-09-06T21:41:42.313Z,100846.97
2022-09-06T21:44:10.420Z,100843.28
2022-09-06T21:46:39.267Z,100851.03
2022-09-06T21:49:10.291Z,100850.38
2022-09-06T21:51:37.853Z,100852.84
2022-09-06T21:54:06.753Z,100859.19
2022-09-06T21:56:36.209Z,100877.81
2022-09-06T21:59:04.220Z,100890.19
2022-09-06T22:01:34.482Z,100886.91
2022-09-06T22:04:02.417Z,100892.59
2022-09-06T22:06:32.623Z,100900.28
2022-09-06T22:09:04.585Z,100913.97
2022-09-06T22:11:34.329Z,100918.50
2022-09-06T22:14:06.098Z,100930.41
2022-09-06T22:16:37.015Z,100949.91
2022-09-06T22:19:06.385Z,100983.88
2022-09-06T22:21:34.292Z,101018.63
2022-09-06T22:24:04.862Z,101038.97
2022-09-06T22:26:34.984Z,101038.91
2022-09-06T22:29:06.094Z,101046.59
2022-09-06T22:31:35.862Z,101033.25
2022-09-06T22:34:04.093Z,101038.06
2022-09-06T22:36:31.887Z,101052.38
2022-09-06T22:39:01.698Z,101066.44
2022-09-06T22:41:33.238Z,101086.97
2022-09-06T22:44:02.681Z,101080.50
2022-09-06T22:46:30.837Z,101092.38
2022-09-06T22:48:58.706Z,101073.41
2022-09-06T22:51:25.879Z,101086.88
2022-09-06T22:53:52.937Z,101127.06
2022-09-06T22:56:20.068Z,101146.59
2022-09-06T22:58:47.168Z,101157.19
2022-09-06T23:01:16.688Z,101141.84
2022-09-06T23:03:44.762Z,101133.66
2022-09-06T23:06:12.196Z,101133.31
2022-09-06T23:08:40.862Z,101139.19
2022-09-06T23:11:12.473Z,101128.09
2022-09-06T23:13:43.591Z,101123.94
2022-09-06T23:16:18.492Z,101112.78
2022-09-06T23:18:46.857Z,101124.63
2022-09-06T23:21:17.467Z,101116.19
2022-09-06T23:23:45.353Z,101114.88
2022-09-06T23:26:16.867Z,101130.34
2022-09-06T23:28:44.479Z,101145.84
2022-09-06T23:31:15.768Z,101152.31
2022-09-06T23:33:46.133Z,101153.69
2022-09-06T23:36:14.896Z,101150.38
2022-09-06T23:38:42.975Z,101145.56
2022-09-06T23:41:10.850Z,101145.69
2022-09-06T23:43:39.574Z,101152.84
2022-09-06T23:46:09.719Z,101145.34
2022-09-06T23:48:36.947Z,101151.50
2022-09-06T23:51:05.194Z,101149.16
2022-09-06T23:53:32.860Z,101149.59
2022-09-06T23:56:00.327Z,101140.69
2022-09-06T23:58:27.760Z,101134.50
